createdAt,value
2022-10-22T00:01:39.683Z,44.83
2022-10-22T00:04:09.146Z,40.90
2022-10-22T00:06:38.646Z,44.00
2022-10-22T00:09:08.869Z,42.67
2022-10-22T00:11:39.320Z,39.43
2022-10-22T00:14:11.641Z,45.97
2022-10-22T00:16:41.405Z,39.63
2022-10-22T00:19:13.318Z,35.50
2022-10-22T00:21:42.795Z,41.23
2022-10-22T00:24:12.322Z,39.00
2022-10-22T00:26:42.126Z,37.30
2022-10-22T00:29:14.203Z,38.27
2022-10-22T00:31:49.641Z,41.90
2022-10-22T00:34:20.163Z,41.43
2022-10-22T00:36:50.051Z,39.40
2022-10-22T00:39:20.974Z,36.57
2022-10-22T00:41:51.866Z,42.70
2022-10-22T00:44:54.363Z,39.40
2022-10-22T00:47:26.865Z,38.03
2022-10-22T00:49:56.830Z,43.67
2022-10-22T00:52:26.581Z,44.50
2022-10-22T00:54:56.074Z,48.80
2022-10-22T00:57:25.811Z,37.97
2022-10-22T00:59:55.561Z,40.70
2022-10-22T01:02:27.755Z,43.10
2022-10-22T01:04:57.275Z,40.80
2022-10-22T01:07:27.740Z,41.47
2022-10-22T01:10:06.448Z,41.60
2022-10-22T01:12:44.509Z,39.90
2022-10-22T01:15:20.954Z,41.83
2022-10-22T01:17:58.476Z,40.07
2022-10-22T01:20:47.339Z,37.50
2022-10-22T01:23:45.741Z,38.83
2022-10-22T01:26:20.752Z,41.07
2022-10-22T01:28:59.237Z,37.80
2022-10-22T01:31:30.538Z,46.80
2022-10-22T01:34:00.901Z,39.13
2022-10-22T01:36:31.094Z,45.83
2022-10-22T01:39:01.910Z,43.07
2022-10-22T01:41:31.552Z,41.13
2022-10-22T01:44:03.567Z,43.00
2022-10-22T01:46:33.418Z,40.17
2022-10-22T01:49:16.140Z,46.03
2022-10-22T01:51:55.330Z,46.90
2022-10-22T01:54:33.850Z,49.73
2022-10-22T01:57:11.325Z,51.20
2022-10-22T01:59:49.997Z,46.70
2022-10-22T02:02:27.677Z,43.60
2022-10-22T02:05:01.879Z,42.70
2022-10-22T02:07:34.630Z,48.87
2022-10-22T02:10:04.381Z,50.53
2022-10-22T02:12:34.576Z,44.10
2022-10-22T02:15:08.116Z,43.20
2022-10-22T02:17:39.765Z,48.23
2022-10-22T02:20:13.063Z,50.90
2022-10-22T02:22:42.864Z,48.27
2022-10-22T02:25:13.734Z,58.37
2022-10-22T02:27:46.031Z,51.40
2022-10-22T02:30:19.937Z,52.67
2022-10-22T02:32:54.069Z,47.33
2022-10-22T02:35:25.467Z,52.60
2022-10-22T02:37:55.197Z,51.40
2022-10-22T02:40:24.813Z,47.97
2022-10-22T02:42:54.590Z,50.10
2022-10-22T02:45:27.050Z,48.83
2022-10-22T02:47:56.439Z,49.00
2022-10-22T02:50:25.896Z,45.70
2022-10-22T02:52:55.334Z,45.07
2022-10-22T02:55:24.784Z,43.73
2022-10-22T02:57:54.173Z,45.50
2022-10-22T03:00:26.204Z,45.23
2022-10-22T03:02:55.657Z,48.77
2022-10-22T03:05:25.054Z,49.07
2022-10-22T03:07:54.422Z,57.27
2022-10-22T03:10:23.800Z,44.37
2022-10-22T03:12:53.185Z,46.73
2022-10-22T03:15:22.627Z,39.40
2022-10-22T03:17:54.730Z,47.60
2022-10-22T03:20:24.403Z,46.10
2022-10-22T03:22:53.883Z,46.17
2022-10-22T03:25:25.792Z,44.80
2022-10-22T03:27:56.274Z,45.50
2022-10-22T03:30:25.766Z,45.07
2022-10-22T03:32:57.757Z,46.33
2022-10-22T03:35:27.335Z,42.17
2022-10-22T03:37:57.159Z,65.30
2022-10-22T03:40:26.628Z,59.53
2022-10-22T03:42:56.197Z,41.73
2022-10-22T03:45:25.726Z,40.00
2022-10-22T03:47:58.055Z,42.60
2022-10-22T03:50:27.559Z,42.50
2022-10-22T03:52:58.218Z,44.00
2022-10-22T03:55:27.790Z,53.73
2022-10-22T03:57:57.212Z,50.13
2022-10-22T04:00:26.703Z,44.13
2022-10-22T04:02:58.730Z,41.90
2022-10-22T04:05:28.368Z,43.23
2022-10-22T04:07:57.881Z,42.80
2022-10-22T04:10:27.350Z,47.60
2022-10-22T04:12:59.102Z,48.87
2022-10-22T04:15:29.150Z,53.03
2022-10-22T04:18:01.454Z,48.63
2022-10-22T04:20:30.931Z,49.20
2022-10-22T04:23:00.382Z,48.17
2022-10-22T04:25:29.816Z,70.83
2022-10-22T04:27:59.285Z,47.17
2022-10-22T04:30:29.017Z,55.23
2022-10-22T04:33:01.110Z,89.13
2022-10-22T04:35:30.639Z,139.80
2022-10-22T04:38:00.560Z,150.27
2022-10-22T04:40:30.060Z,138.47
2022-10-22T04:42:59.816Z,112.13
2022-10-22T04:45:29.327Z,140.63
2022-10-22T04:48:01.418Z,118.13
2022-10-22T04:50:31.253Z,270.07
2022-10-22T04:53:00.673Z,172.77
2022-10-22T04:58:01.404Z,208.67
2022-10-22T05:00:31.207Z,237.30
2022-10-22T05:03:03.256Z,123.10
2022-10-22T05:05:32.750Z,143.03
2022-10-22T05:08:02.222Z,192.00
2022-10-22T05:10:31.700Z,152.83
2022-10-22T05:13:01.157Z,118.17
2022-10-22T05:15:30.695Z,193.37
2022-10-22T05:18:02.772Z,149.53
2022-10-22T05:20:32.256Z,187.40
2022-10-22T05:23:01.709Z,214.13
2022-10-22T05:25:31.139Z,191.47
2022-10-22T05:28:00.658Z,195.63
2022-10-22T05:30:30.221Z,225.27
2022-10-22T05:32:59.890Z,186.20
2022-10-22T05:35:31.970Z,216.43
2022-10-22T05:38:01.463Z,374.27
2022-10-22T05:40:31.462Z,186.43
2022-10-22T05:43:01.542Z,249.43
2022-10-22T05:45:32.062Z,251.83
2022-10-22T05:48:01.747Z,160.60
2022-10-22T05:50:34.026Z,332.00
2022-10-22T05:53:03.485Z,186.50
2022-10-22T05:55:36.900Z,135.70
2022-10-22T05:58:06.514Z,194.00
2022-10-22T06:00:36.744Z,202.80
2022-10-22T06:03:07.391Z,146.80
2022-10-22T06:05:40.702Z,133.97
2022-10-22T06:08:15.502Z,128.10
2022-10-22T06:10:47.640Z,104.13
2022-10-22T06:13:17.103Z,79.53
2022-10-22T06:15:46.633Z,98.27
2022-10-22T06:18:17.080Z,79.33
2022-10-22T06:20:49.199Z,84.27
2022-10-22T06:23:19.104Z,84.73
2022-10-22T06:25:58.900Z,74.90
2022-10-22T06:28:29.226Z,75.77
2022-10-22T06:31:00.317Z,71.03
2022-10-22T06:33:30.589Z,78.03
2022-10-22T06:36:10.447Z,70.00
2022-10-22T06:38:40.181Z,75.30
2022-10-22T06:41:12.114Z,71.30
2022-10-22T06:43:42.354Z,74.43
2022-10-22T06:46:14.873Z,65.63
2022-10-22T06:48:51.915Z,65.50
2022-10-22T06:51:24.013Z,60.50
2022-10-22T06:53:54.571Z,76.40
2022-10-22T06:56:26.496Z,71.03
2022-10-22T06:58:58.057Z,66.13
2022-10-22T07:01:29.666Z,66.73
2022-10-22T07:03:59.526Z,62.67
2022-10-22T07:06:32.226Z,53.60
2022-10-22T07:09:02.593Z,62.30
2022-10-22T07:11:35.325Z,57.97
2022-10-22T07:14:04.774Z,62.17
2022-10-22T07:16:34.254Z,60.23
2022-10-22T07:19:03.815Z,58.67
2022-10-22T07:21:35.876Z,54.60
2022-10-22T07:24:05.446Z,54.90
2022-10-22T07:26:34.866Z,55.67
2022-10-22T07:29:04.577Z,59.50
2022-10-22T07:31:34.287Z,54.10
2022-10-22T07:34:03.785Z,63.37
2022-10-22T07:36:36.413Z,60.47
2022-10-22T07:39:07.437Z,59.57
2022-10-22T07:41:37.077Z,53.50
2022-10-22T07:44:07.146Z,57.40
2022-10-22T07:46:37.141Z,57.77
2022-10-22T07:49:06.573Z,55.80
2022-10-22T07:51:38.680Z,53.60
2022-10-22T07:54:08.286Z,50.10
2022-10-22T07:56:37.816Z,62.37
2022-10-22T07:59:07.351Z,54.73
2022-10-22T08:01:37.772Z,46.00
2022-10-22T08:04:08.381Z,50.93
2022-10-22T08:06:45.736Z,47.57
2022-10-22T08:09:17.173Z,41.90
2022-10-22T08:11:47.031Z,48.30
2022-10-22T08:14:16.464Z,47.10
2022-10-22T08:16:46.412Z,44.80
2022-10-22T08:19:19.000Z,52.23
2022-10-22T08:21:51.207Z,46.27
2022-10-22T08:24:21.647Z,44.23
2022-10-22T08:26:52.177Z,43.77
2022-10-22T08:29:22.817Z,40.87
2022-10-22T08:31:52.426Z,48.20
2022-10-22T08:34:22.097Z,47.90
2022-10-22T08:36:54.188Z,49.03
2022-10-22T08:39:23.773Z,44.03
2022-10-22T08:41:59.214Z,52.20
2022-10-22T08:44:48.004Z,46.13
2022-10-22T08:47:34.949Z,52.07
2022-10-22T08:50:04.773Z,64.47
2022-10-22T08:52:37.607Z,47.57
2022-10-22T08:55:07.886Z,51.47
2022-10-22T08:57:48.729Z,51.30
2022-10-22T09:00:24.049Z,53.60
2022-10-22T09:03:15.514Z,49.20
2022-10-22T09:08:24.030Z,47.60
2022-10-22T09:10:57.785Z,45.67
2022-10-22T09:13:27.347Z,42.97
2022-10-22T09:15:58.991Z,49.13
2022-10-22T09:18:38.850Z,47.13
2022-10-22T09:21:17.742Z,69.27
2022-10-22T09:24:01.786Z,44.00
2022-10-22T09:26:31.307Z,43.20
2022-10-22T09:29:03.264Z,31.57
2022-10-22T09:31:34.075Z,30.90
2022-10-22T09:34:07.444Z,29.83
2022-10-22T09:36:38.361Z,41.83
2022-10-22T09:39:24.917Z,33.47
2022-10-22T09:41:54.529Z,25.87
2022-10-22T09:44:24.197Z,31.07
2022-10-22T09:46:53.711Z,29.47
2022-10-22T09:49:25.163Z,36.70
2022-10-22T09:51:57.500Z,25.20
2022-10-22T09:54:41.367Z,25.10
2022-10-22T09:57:18.419Z,24.47
2022-10-22T09:59:51.439Z,20.00
2022-10-22T10:02:37.613Z,24.77
2022-10-22T10:05:09.348Z,22.07
2022-10-22T10:07:39.892Z,17.87
2022-10-22T10:10:21.982Z,11.90
2022-10-22T10:12:57.077Z,11.73
2022-10-22T10:15:31.454Z,14.03
2022-10-22T10:18:08.033Z,13.87
2022-10-22T10:20:43.632Z,15.07
2022-10-22T10:23:23.003Z,12.93
2022-10-22T10:26:01.249Z,16.67
2022-10-22T10:28:43.561Z,13.80
2022-10-22T10:31:21.314Z,18.20
2022-10-22T10:33:56.401Z,14.53
2022-10-22T10:36:32.530Z,17.53
2022-10-22T10:39:06.157Z,20.83
2022-10-22T10:41:48.358Z,12.73
2022-10-22T10:44:38.576Z,14.57
2022-10-22T10:47:16.377Z,14.53
2022-10-22T10:49:46.201Z,11.60
2022-10-22T10:52:21.314Z,10.10
2022-10-22T10:54:57.555Z,8.37
2022-10-22T10:57:36.204Z,12.43
2022-10-22T11:00:09.386Z,8.63
2022-10-22T11:02:59.765Z,9.40
2022-10-22T11:05:37.339Z,8.93
2022-10-22T11:08:10.538Z,11.20
2022-10-22T11:10:42.941Z,9.53
2022-10-22T11:13:20.750Z,14.87
2022-10-22T11:15:54.525Z,10.37
2022-10-22T11:18:28.135Z,9.10
2022-10-22T11:21:07.410Z,10.37
2022-10-22T11:23:40.534Z,16.63
2022-10-22T11:26:15.022Z,8.40
2022-10-22T11:28:50.705Z,10.47
2022-10-22T11:31:21.755Z,9.87
2022-10-22T11:34:04.995Z,10.90
2022-10-22T11:36:45.675Z,8.30
2022-10-22T11:39:34.073Z,4.50
2022-10-22T11:42:06.750Z,7.73
2022-10-22T11:44:49.284Z,8.60
2022-10-22T11:47:22.122Z,24.33
2022-10-22T11:50:00.931Z,5.27
2022-10-22T11:52:42.057Z,6.57
2022-10-22T11:55:51.616Z,7.10
2022-10-22T11:58:33.839Z,8.90
2022-10-22T12:01:28.546Z,11.13
2022-10-22T12:04:21.460Z,6.63
2022-10-22T12:06:56.988Z,6.83
2022-10-22T12:09:30.493Z,5.67
2022-10-22T12:12:06.690Z,8.13
2022-10-22T12:14:41.765Z,9.03
2022-10-22T12:17:16.477Z,7.37
2022-10-22T12:19:47.118Z,9.90
2022-10-22T12:22:20.113Z,8.33
2022-10-22T12:24:52.060Z,7.10
2022-10-22T12:27:23.148Z,11.83
2022-10-22T12:29:58.213Z,6.27
2022-10-22T12:32:40.306Z,11.53
2022-10-22T12:35:14.665Z,5.57
2022-10-22T12:37:44.385Z,7.77
2022-10-22T12:40:20.845Z,6.80
2022-10-22T12:42:54.953Z,9.63
2022-10-22T12:45:25.659Z,8.70
2022-10-22T12:47:59.469Z,10.67
2022-10-22T12:50:38.160Z,11.90
2022-10-22T12:53:08.581Z,16.07
2022-10-22T12:55:39.351Z,11.70
2022-10-22T12:58:09.353Z,11.03
2022-10-22T13:00:39.258Z,7.53
2022-10-22T13:03:26.767Z,6.20
2022-10-22T13:05:56.269Z,9.50
2022-10-22T13:08:29.563Z,10.13
2022-10-22T13:10:59.035Z,9.93
2022-10-22T13:13:34.079Z,12.13
2022-10-22T13:16:17.648Z,8.20
2022-10-22T13:18:50.398Z,8.80
2022-10-22T13:21:29.113Z,7.47
2022-10-22T13:24:01.173Z,10.07
2022-10-22T13:26:36.297Z,14.20
2022-10-22T13:29:12.448Z,7.47
2022-10-22T13:31:48.046Z,6.43
2022-10-22T13:34:22.048Z,10.30
2022-10-22T13:36:52.188Z,9.40
2022-10-22T13:39:22.688Z,8.83
2022-10-22T13:41:52.930Z,11.43
2022-10-22T13:44:22.541Z,7.70
2022-10-22T13:46:52.048Z,11.90
2022-10-22T13:49:25.209Z,8.10
2022-10-22T13:51:54.769Z,21.13
2022-10-22T13:54:25.840Z,8.03
2022-10-22T13:56:55.552Z,18.20
2022-10-22T13:59:24.949Z,30.83
2022-10-22T14:01:55.847Z,35.77
2022-10-22T14:04:27.894Z,31.13
2022-10-22T14:06:58.864Z,26.40
2022-10-22T14:09:30.801Z,14.50
2022-10-22T14:12:00.310Z,8.60
2022-10-22T14:14:29.789Z,14.13
2022-10-22T14:16:59.332Z,12.00
2022-10-22T14:19:32.139Z,10.23
2022-10-22T14:22:01.853Z,9.60
2022-10-22T14:24:31.303Z,9.30
2022-10-22T14:27:00.765Z,9.63
2022-10-22T14:29:30.211Z,9.23
2022-10-22T14:31:59.673Z,7.63
2022-10-22T14:34:31.801Z,13.70
2022-10-22T14:37:01.627Z,10.33
2022-10-22T14:39:31.147Z,8.20
2022-10-22T14:42:00.596Z,10.90
2022-10-22T14:44:30.098Z,15.30
2022-10-22T14:46:59.537Z,8.10
2022-10-22T14:49:31.577Z,8.37
2022-10-22T14:52:01.162Z,6.57
2022-10-22T14:54:30.590Z,8.80
2022-10-22T14:57:00.085Z,11.30
2022-10-22T14:59:29.578Z,11.47
2022-10-22T15:01:59.033Z,12.13
2022-10-22T15:04:31.063Z,17.20
2022-10-22T15:07:00.470Z,18.00
2022-10-22T15:09:29.954Z,14.67
2022-10-22T15:11:59.818Z,12.13
2022-10-22T15:14:31.875Z,9.70
2022-10-22T15:17:01.771Z,8.30
2022-10-22T15:19:34.896Z,9.50
2022-10-22T15:22:04.603Z,11.73
2022-10-22T15:24:34.093Z,10.40
2022-10-22T15:27:03.645Z,9.00
2022-10-22T15:29:33.234Z,6.60
2022-10-22T15:32:03.154Z,10.00
2022-10-22T15:34:37.393Z,16.97
2022-10-22T15:37:08.283Z,12.23
2022-10-22T15:39:42.016Z,11.40
2022-10-22T15:42:11.969Z,7.00
2022-10-22T15:44:41.659Z,10.13
2022-10-22T15:47:11.192Z,12.20
2022-10-22T15:49:44.432Z,9.83
2022-10-22T15:52:13.907Z,9.40
2022-10-22T15:54:43.865Z,8.33
2022-10-22T15:57:13.328Z,10.77
2022-10-22T15:59:42.840Z,13.17
2022-10-22T16:02:13.068Z,11.90
2022-10-22T16:04:45.135Z,11.33
2022-10-22T16:07:15.630Z,10.40
2022-10-22T16:09:45.078Z,7.13
2022-10-22T16:12:17.175Z,9.80
2022-10-22T16:14:46.928Z,7.70
2022-10-22T16:17:16.572Z,6.97
2022-10-22T16:19:49.931Z,8.90
2022-10-22T16:22:19.469Z,8.50
2022-10-22T16:24:48.846Z,11.93
2022-10-22T16:27:18.580Z,9.80
2022-10-22T16:29:48.061Z,9.37
2022-10-22T16:32:17.915Z,11.40
2022-10-22T16:34:49.938Z,11.03
2022-10-22T16:37:19.468Z,9.90
2022-10-22T16:39:49.789Z,10.20
2022-10-22T16:42:19.313Z,11.20
2022-10-22T16:44:48.783Z,11.13
2022-10-22T16:47:18.295Z,11.23
2022-10-22T16:49:50.364Z,9.40
2022-10-22T16:52:19.992Z,9.97
2022-10-22T16:54:49.408Z,15.60
2022-10-22T16:57:18.883Z,12.67
2022-10-22T16:59:50.083Z,8.37
2022-10-22T17:02:19.531Z,12.63
2022-10-22T17:04:51.575Z,10.17
2022-10-22T17:07:21.022Z,8.30
2022-10-22T17:09:50.807Z,13.40
2022-10-22T17:12:20.297Z,15.03
2022-10-22T17:14:51.115Z,10.97
2022-10-22T17:17:20.692Z,11.77
2022-10-22T17:19:52.826Z,11.63
2022-10-22T17:22:22.451Z,12.53
2022-10-22T17:25:17.203Z,12.13
2022-10-22T17:27:46.777Z,14.77
2022-10-22T17:30:21.909Z,18.20
2022-10-22T17:32:55.451Z,13.30
2022-10-22T17:38:16.914Z,13.50
2022-10-22T17:40:46.430Z,11.80
2022-10-22T17:43:15.938Z,16.60
2022-10-22T17:45:45.453Z,12.87
2022-10-22T17:48:15.025Z,16.53
2022-10-22T17:50:50.403Z,21.80
2022-10-22T17:53:21.513Z,12.50
2022-10-22T17:55:50.947Z,13.67
2022-10-22T17:58:20.422Z,18.67
2022-10-22T18:00:51.274Z,14.50
2022-10-22T18:03:21.154Z,21.57
2022-10-22T18:05:53.242Z,17.73
2022-10-22T18:08:23.420Z,15.97
2022-10-22T18:10:52.884Z,18.07
2022-10-22T18:13:22.396Z,18.50
2022-10-22T18:15:56.875Z,16.40
2022-10-22T18:18:26.806Z,14.70
2022-10-22T18:21:00.548Z,15.07
2022-10-22T18:23:30.598Z,12.73
2022-10-22T18:26:00.174Z,17.83
2022-10-22T18:28:29.839Z,14.40
2022-10-22T18:30:59.266Z,16.77
2022-10-22T18:33:28.878Z,28.47
2022-10-22T18:36:06.474Z,24.83
2022-10-22T18:38:37.511Z,16.67
2022-10-22T18:41:08.786Z,18.37
2022-10-22T18:43:38.561Z,19.47
2022-10-22T18:46:09.396Z,18.20
2022-10-22T18:48:39.429Z,19.20
2022-10-22T18:51:11.994Z,20.37
2022-10-22T18:53:41.450Z,15.27
2022-10-22T18:56:12.398Z,21.23
2022-10-22T18:58:42.422Z,20.93
2022-10-22T19:01:12.521Z,20.47
2022-10-22T19:03:41.987Z,29.03
2022-10-22T19:06:15.748Z,18.67
2022-10-22T19:08:46.909Z,24.13
2022-10-22T19:11:20.950Z,18.20
2022-10-22T19:13:50.451Z,17.77
2022-10-22T19:16:23.527Z,21.50
2022-10-22T19:18:54.146Z,18.30
2022-10-22T19:21:26.209Z,22.80
2022-10-22T19:23:58.046Z,23.07
2022-10-22T19:26:28.288Z,18.83
2022-10-22T19:28:58.433Z,102.90
2022-10-22T19:31:29.869Z,27.63
2022-10-22T19:34:00.414Z,51.47
2022-10-22T19:36:34.555Z,22.40
2022-10-22T19:39:04.513Z,27.40
2022-10-22T19:41:34.895Z,23.90
2022-10-22T19:44:04.498Z,17.97
2022-10-22T19:46:34.403Z,22.00
2022-10-22T19:49:04.833Z,28.43
2022-10-22T19:51:37.746Z,26.20
2022-10-22T19:54:09.770Z,26.30
2022-10-22T19:56:41.228Z,21.97
2022-10-22T19:59:10.644Z,19.20
2022-10-22T20:01:40.714Z,24.93
2022-10-22T20:04:10.170Z,34.53
2022-10-22T20:06:42.310Z,24.87
2022-10-22T20:09:11.831Z,22.47
2022-10-22T20:11:42.092Z,25.93
2022-10-22T20:14:11.572Z,27.23
2022-10-22T20:16:41.065Z,24.30
2022-10-22T20:19:10.841Z,21.13
2022-10-22T20:21:45.980Z,23.17
2022-10-22T20:24:15.434Z,27.73
2022-10-22T20:26:47.346Z,22.53
2022-10-22T20:29:18.991Z,21.10
2022-10-22T20:31:49.107Z,21.50
2022-10-22T20:34:18.617Z,27.53
2022-10-22T20:36:50.669Z,26.87
2022-10-22T20:39:20.157Z,26.80
2022-10-22T20:41:51.946Z,22.30
2022-10-22T20:44:21.605Z,23.90
2022-10-22T20:46:51.094Z,26.60
2022-10-22T20:55:28.099Z,22.20
2022-10-22T20:57:58.040Z,21.57
2022-10-22T21:00:27.540Z,19.33
2022-10-22T21:02:57.005Z,22.67
2022-10-22T21:05:26.509Z,19.50
2022-10-22T21:07:55.916Z,23.37
2022-10-22T21:10:32.257Z,21.87
2022-10-22T21:13:02.543Z,35.83
2022-10-22T21:15:31.996Z,23.37
2022-10-22T21:18:01.382Z,21.70
2022-10-22T21:20:30.833Z,28.93
2022-10-22T21:23:00.567Z,26.17
2022-10-22T21:25:32.618Z,26.40
2022-10-22T21:28:02.193Z,23.07
2022-10-22T21:30:31.984Z,26.63
2022-10-22T21:33:01.424Z,23.33
2022-10-22T21:35:32.423Z,21.90
2022-10-22T21:38:02.917Z,22.70
2022-10-22T21:40:35.250Z,25.77
2022-10-22T21:43:04.880Z,23.67
2022-10-22T21:48:04.834Z,21.40
2022-10-22T21:50:34.595Z,31.97
2022-10-22T21:53:04.009Z,27.30
2022-10-22T21:55:40.170Z,25.20
2022-10-22T21:58:10.421Z,24.20
2022-10-22T22:00:39.924Z,26.23
2022-10-22T22:03:09.640Z,29.80
2022-10-22T22:05:39.470Z,29.03
2022-10-22T22:08:09.376Z,33.23
2022-10-22T22:13:12.057Z,28.33
2022-10-22T22:15:42.009Z,34.97
2022-10-22T22:18:11.558Z,33.63
2022-10-22T22:20:41.028Z,27.17
2022-10-22T22:23:10.541Z,30.23
2022-10-22T22:25:42.561Z,33.93
2022-10-22T22:28:13.001Z,34.63
2022-10-22T22:30:42.476Z,35.70
2022-10-22T22:33:12.542Z,29.50
2022-10-22T22:35:41.981Z,31.17
2022-10-22T22:38:11.461Z,26.30
2022-10-22T22:40:43.677Z,29.93
2022-10-22T22:43:14.699Z,34.37
2022-10-22T22:45:44.153Z,37.60
2022-10-22T22:48:13.656Z,30.30
2022-10-22T22:50:43.155Z,34.30
2022-10-22T22:53:12.649Z,33.37
2022-10-22T22:55:44.712Z,29.83
2022-10-22T22:58:14.239Z,31.53
2022-10-22T23:00:43.738Z,26.70
2022-10-22T23:03:13.237Z,30.97
2022-10-22T23:05:42.736Z,29.53
2022-10-22T23:08:12.241Z,29.93
2022-10-22T23:10:44.342Z,53.80
2022-10-22T23:13:13.811Z,35.97
2022-10-22T23:15:43.303Z,31.87
2022-10-22T23:18:12.712Z,34.23
2022-10-22T23:20:42.175Z,31.97
2022-10-22T23:23:11.609Z,36.87
2022-10-22T23:25:41.042Z,30.60
2022-10-22T23:28:13.099Z,38.47
2022-10-22T23:30:46.951Z,42.80
2022-10-22T23:33:16.394Z,35.47
2022-10-22T23:35:46.265Z,37.43
2022-10-22T23:38:15.736Z,38.50
2022-10-22T23:40:45.374Z,35.00
2022-10-22T23:43:17.442Z,31.97
2022-10-22T23:45:46.938Z,36.30
2022-10-22T23:48:16.409Z,34.77
2022-10-22T23:50:45.974Z,38.13
2022-10-22T23:53:15.420Z,36.50
2022-10-22T23:55:46.538Z,37.23
2022-10-22T23:58:19.084Z,39.17
